sensor_id;sensor_type;location;lat;lon;timestamp;noise_LAeq;noise_LA_min;noise_LA_max;noise_LA01;noise_LA95
69616;Laerm;56822;52.516;4.708;2023-05-10T00:00:03;31.32;29.41;34.59;;
69616;Laerm;56822;52.516;4.708;2023-05-10T00:00:15;30.30;28.72;41.01;;
69616;Laerm;56822;52.516;4.708;2023-05-10T00:00:25;31.10;29.40;34.20;;
69616;Laerm;56822;52.516;4.708;2023-05-10T00:00:35;34.00;29.76;52.00;;
69616;Laerm;56822;52.516;4.708;2023-05-10T00:00:46;33.43;30.84;35.76;;
69616;Laerm;56822;52.516;4.708;2023-05-10T00:00:56;32.58;30.06;37.08;;
69616;Laerm;56822;52.516;4.708;2023-05-10T00:01:07;32.52;29.77;35.94;;
69616;Laerm;56822;52.516;4.708;2023-05-10T00:01:17;32.21;29.98;36.02;;
69616;Laerm;56822;52.516;4.708;2023-05-10T00:01:27;30.68;29.10;35.07;;
69616;Laerm;56822;52.516;4.708;2023-05-10T00:01:38;31.36;29.07;42.48;;
69616;Laerm;56822;52.516;4.708;2023-05-10T00:01:48;31.58;29.66;42.58;;
69616;Laerm;56822;52.516;4.708;2023-05-10T00:01:58;32.12;29.68;41.02;;
69616;Laerm;56822;52.516;4.708;2023-05-10T00:02:09;36.46;32.86;39.81;;
69616;Laerm;56822;52.516;4.708;2023-05-10T00:02:19;34.57;30.69;37.71;;
69616;Laerm;56822;52.516;4.708;2023-05-10T00:02:29;31.21;29.27;33.17;;
69616;Laerm;56822;52.516;4.708;2023-05-10T00:02:40;33.72;29.45;42.35;;
69616;Laerm;56822;52.516;4.708;2023-05-10T00:02:50;32.10;29.43;38.73;;
69616;Laerm;56822;52.516;4.708;2023-05-10T00:03:01;33.63;31.23;39.08;;
69616;Laerm;56822;52.516;4.708;2023-05-10T00:03:11;30.76;28.96;38.97;;
69616;Laerm;56822;52.516;4.708;2023-05-10T00:03:21;31.50;28.96;35.70;;
69616;Laerm;56822;52.516;4.708;2023-05-10T00:03:32;35.09;31.37;38.07;;
69616;Laerm;56822;52.516;4.708;2023-05-10T00:03:42;31.43;29.09;33.07;;
69616;Laerm;56822;52.516;4.708;2023-05-10T00:03:52;33.25;29.66;36.70;;
69616;Laerm;56822;52.516;4.708;2023-05-10T00:04:03;34.71;31.72;37.64;;
69616;Laerm;56822;52.516;4.708;2023-05-10T00:04:13;39.38;36.63;43.65;;
69616;Laerm;56822;52.516;4.708;2023-05-10T00:04:24;42.33;30.87;48.05;;
69616;Laerm;56822;52.516;4.708;2023-05-10T00:04:37;30.98;29.00;39.15;;
69616;Laerm;56822;52.516;4.708;2023-05-10T00:04:48;30.91;29.12;34.90;;
69616;Laerm;56822;52.516;4.708;2023-05-10T00:04:58;33.79;30.41;37.28;;
69616;Laerm;56822;52.516;4.708;2023-05-10T00:05:08;33.93;31.02;37.09;;
69616;Laerm;56822;52.516;4.708;2023-05-10T00:05:19;33.42;30.72;36.82;;
69616;Laerm;56822;52.516;4.708;2023-05-10T00:05:29;33.08;30.67;39.18;;
69616;Laerm;56822;52.516;4.708;2023-05-10T00:05:39;32.22;29.87;35.56;;
69616;Laerm;56822;52.516;4.708;2023-05-10T00:05:50;32.26;29.85;34.62;;
69616;Laerm;56822;52.516;4.708;2023-05-10T00:06:00;31.56;29.98;34.81;;
69616;Laerm;56822;52.516;4.708;2023-05-10T00:06:11;33.85;31.46;37.75;;
69616;Laerm;56822;52.516;4.708;2023-05-10T00:06:22;32.44;30.33;36.48;;
69616;Laerm;56822;52.516;4.708;2023-05-10T00:06:32;33.02;30.22;36.97;;
69616;Laerm;56822;52.516;4.708;2023-05-10T00:06:42;33.06;31.16;35.50;;
69616;Laerm;56822;52.516;4.708;2023-05-10T00:06:53;36.80;31.99;40.72;;
69616;Laerm;56822;52.516;4.708;2023-05-10T00:07:03;33.25;30.96;38.88;;
69616;Laerm;56822;52.516;4.708;2023-05-10T00:07:13;34.20;31.13;37.35;;
69616;Laerm;56822;52.516;4.708;2023-05-10T00:07:24;37.37;35.38;43.35;;
69616;Laerm;56822;52.516;4.708;2023-05-10T00:07:35;37.16;33.40;40.52;;
69616;Laerm;56822;52.516;4.708;2023-05-10T00:07:45;33.98;31.34;38.11;;
69616;Laerm;56822;52.516;4.708;2023-05-10T00:07:55;36.07;32.74;41.70;;
69616;Laerm;56822;52.516;4.708;2023-05-10T00:08:06;34.64;32.27;37.03;;
69616;Laerm;56822;52.516;4.708;2023-05-10T00:08:16;34.02;31.23;37.73;;
69616;Laerm;56822;52.516;4.708;2023-05-10T00:08:26;31.19;29.48;36.77;;
69616;Laerm;56822;52.516;4.708;2023-05-10T00:08:37;31.51;29.17;33.94;;
69616;Laerm;56822;52.516;4.708;2023-05-10T00:08:47;31.00;29.26;33.54;;
69616;Laerm;56822;52.516;4.708;2023-05-10T00:08:57;33.75;30.32;38.10;;
69616;Laerm;56822;52.516;4.708;2023-05-10T00:09:08;31.99;30.33;36.15;;
69616;Laerm;56822;52.516;4.708;2023-05-10T00:09:18;31.08;29.33;34.01;;
69616;Laerm;56822;52.516;4.708;2023-05-10T00:09:28;33.43;30.20;37.45;;
69616;Laerm;56822;52.516;4.708;2023-05-10T00:09:38;36.26;33.49;44.03;;
69616;Laerm;56822;52.516;4.708;2023-05-10T00:09:49;32.32;29.51;36.28;;
69616;Laerm;56822;52.516;4.708;2023-05-10T00:09:59;33.61;30.25;37.84;;
69616;Laerm;56822;52.516;4.708;2023-05-10T00:10:10;35.15;32.94;38.16;;
69616;Laerm;56822;52.516;4.708;2023-05-10T00:10:20;33.75;30.52;37.62;;
69616;Laerm;56822;52.516;4.708;2023-05-10T00:10:30;39.77;30.65;51.76;;
69616;Laerm;56822;52.516;4.708;2023-05-10T00:10:41;30.37;28.77;32.48;;
69616;Laerm;56822;52.516;4.708;2023-05-10T00:10:52;30.18;28.93;32.37;;
69616;Laerm;56822;52.516;4.708;2023-05-10T00:11:03;29.87;28.41;34.36;;
69616;Laerm;56822;52.516;4.708;2023-05-10T00:11:13;29.71;28.43;33.17;;
69616;Laerm;56822;52.516;4.708;2023-05-10T00:11:24;29.68;28.38;32.56;;
69616;Laerm;56822;52.516;4.708;2023-05-10T00:11:34;29.95;28.52;32.78;;
69616;Laerm;56822;52.516;4.708;2023-05-10T00:11:44;29.83;28.35;37.53;;
69616;Laerm;56822;52.516;4.708;2023-05-10T00:11:55;29.88;28.40;35.60;;
69616;Laerm;56822;52.516;4.708;2023-05-10T00:12:05;29.59;27.98;33.98;;
69616;Laerm;56822;52.516;4.708;2023-05-10T00:12:15;29.33;27.67;32.97;;
69616;Laerm;56822;52.516;4.708;2023-05-10T00:12:26;30.33;28.47;34.13;;
69616;Laerm;56822;52.516;4.708;2023-05-10T00:12:36;35.01;30.64;39.10;;
69616;Laerm;56822;52.516;4.708;2023-05-10T00:12:46;38.53;33.03;43.25;;
69616;Laerm;56822;52.516;4.708;2023-05-10T00:12:57;32.72;29.46;40.15;;
69616;Laerm;56822;52.516;4.708;2023-05-10T00:13:07;29.99;28.05;42.67;;
69616;Laerm;56822;52.516;4.708;2023-05-10T00:13:17;31.16;28.60;34.38;;
69616;Laerm;56822;52.516;4.708;2023-05-10T00:13:28;37.60;31.89;42.40;;
69616;Laerm;56822;52.516;4.708;2023-05-10T00:13:38;38.71;33.94;42.21;;
69616;Laerm;56822;52.516;4.708;2023-05-10T00:13:48;36.07;33.50;39.89;;
69616;Laerm;56822;52.516;4.708;2023-05-10T00:13:58;40.81;35.14;47.85;;
69616;Laerm;56822;52.516;4.708;2023-05-10T00:14:09;50.81;41.89;55.79;;
69616;Laerm;56822;52.516;4.708;2023-05-10T00:14:19;53.90;47.81;58.54;;
69616;Laerm;56822;52.516;4.708;2023-05-10T00:14:29;52.34;45.86;57.52;;
69616;Laerm;56822;52.516;4.708;2023-05-10T00:14:40;48.88;41.30;53.45;;
69616;Laerm;56822;52.516;4.708;2023-05-10T00:14:50;40.44;33.77;50.65;;
69616;Laerm;56822;52.516;4.708;2023-05-10T00:15:00;33.79;31.06;36.94;;
69616;Laerm;56822;52.516;4.708;2023-05-10T00:15:11;33.88;31.06;37.34;;
69616;Laerm;56822;52.516;4.708;2023-05-10T00:15:21;37.34;33.78;40.86;;
69616;Laerm;56822;52.516;4.708;2023-05-10T00:15:31;36.20;34.16;39.60;;
69616;Laerm;56822;52.516;4.708;2023-05-10T00:15:42;40.84;36.07;43.61;;
69616;Laerm;56822;52.516;4.708;2023-05-10T00:15:52;38.80;34.96;44.39;;
69616;Laerm;56822;52.516;4.708;2023-05-10T00:16:03;38.16;33.99;41.51;;
69616;Laerm;56822;52.516;4.708;2023-05-10T00:16:13;43.01;37.31;48.55;;
69616;Laerm;56822;52.516;4.708;2023-05-10T00:16:23;50.74;43.98;54.24;;
69616;Laerm;56822;52.516;4.708;2023-05-10T00:16:34;51.12;45.05;55.49;;
69616;Laerm;56822;52.516;4.708;2023-05-10T00:16:44;49.81;44.79;53.66;;
69616;Laerm;56822;52.516;4.708;2023-05-10T00:16:54;46.51;38.47;53.30;;
69616;Laerm;56822;52.516;4.708;2023-05-10T00:17:05;42.60;35.08;50.97;;
69616;Laerm;56822;52.516;4.708;2023-05-10T00:17:15;36.26;33.10;41.46;;
69616;Laerm;56822;52.516;4.708;2023-05-10T00:17:25;34.34;29.33;37.89;;
69616;Laerm;56822;52.516;4.708;2023-05-10T00:17:36;30.26;28.35;33.88;;
69616;Laerm;56822;52.516;4.708;2023-05-10T00:17:46;29.82;28.20;33.24;;
69616;Laerm;56822;52.516;4.708;2023-05-10T00:17:56;30.06;28.31;38.20;;
69616;Laerm;56822;52.516;4.708;2023-05-10T00:18:07;29.49;28.16;33.75;;
69616;Laerm;56822;52.516;4.708;2023-05-10T00:18:17;29.76;28.25;33.85;;
69616;Laerm;56822;52.516;4.708;2023-05-10T00:18:27;31.00;29.03;36.39;;
69616;Laerm;56822;52.516;4.708;2023-05-10T00:18:38;34.28;31.35;36.82;;
69616;Laerm;56822;52.516;4.708;2023-05-10T00:18:48;34.63;30.05;37.95;;
69616;Laerm;56822;52.516;4.708;2023-05-10T00:18:59;30.84;29.03;34.28;;
69616;Laerm;56822;52.516;4.708;2023-05-10T00:19:09;30.54;28.27;32.96;;
69616;Laerm;56822;52.516;4.708;2023-05-10T00:19:19;30.12;28.45;34.91;;
69616;Laerm;56822;52.516;4.708;2023-05-10T00:19:29;33.33;29.39;38.26;;
69616;Laerm;56822;52.516;4.708;2023-05-10T00:19:40;35.07;32.84;37.97;;
69616;Laerm;56822;52.516;4.708;2023-05-10T00:19:50;37.48;32.82;40.88;;
69616;Laerm;56822;52.516;4.708;2023-05-10T00:20:00;32.92;29.32;36.91;;
69616;Laerm;56822;52.516;4.708;2023-05-10T00:20:11;29.64;28.07;37.63;;
69616;Laerm;56822;52.516;4.708;2023-05-10T00:20:21;30.32;28.11;36.26;;
69616;Laerm;56822;52.516;4.708;2023-05-10T00:20:31;35.14;30.71;41.16;;
69616;Laerm;56822;52.516;4.708;2023-05-10T00:20:42;36.94;34.76;40.17;;
69616;Laerm;56822;52.516;4.708;2023-05-10T00:20:52;32.95;29.00;36.75;;
69616;Laerm;56822;52.516;4.708;2023-05-10T00:21:03;30.45;29.00;36.30;;
69616;Laerm;56822;52.516;4.708;2023-05-10T00:21:13;32.61;28.70;38.35;;
69616;Laerm;56822;52.516;4.708;2023-05-10T00:21:23;38.37;34.37;42.51;;
69616;Laerm;56822;52.516;4.708;2023-05-10T00:21:33;34.40;31.47;39.18;;
69616;Laerm;56822;52.516;4.708;2023-05-10T00:21:44;37.30;33.34;55.40;;
69616;Laerm;56822;52.516;4.708;2023-05-10T00:21:54;33.09;31.08;35.76;;
69616;Laerm;56822;52.516;4.708;2023-05-10T00:22:04;33.59;31.13;36.14;;
69616;Laerm;56822;52.516;4.708;2023-05-10T00:22:15;33.84;30.23;37.78;;
69616;Laerm;56822;52.516;4.708;2023-05-10T00:22:25;32.35;29.38;35.62;;
69616;Laerm;56822;52.516;4.708;2023-05-10T00:22:35;30.61;28.50;34.31;;
69616;Laerm;56822;52.516;4.708;2023-05-10T00:22:46;33.65;30.68;36.84;;
69616;Laerm;56822;52.516;4.708;2023-05-10T00:22:56;33.74;31.34;38.54;;
69616;Laerm;56822;52.516;4.708;2023-05-10T00:23:06;30.93;29.59;32.51;;
69616;Laerm;56822;52.516;4.708;2023-05-10T00:23:16;30.91;29.47;37.57;;
69616;Laerm;56822;52.516;4.708;2023-05-10T00:23:27;29.91;28.46;31.80;;
69616;Laerm;56822;52.516;4.708;2023-05-10T00:23:37;30.30;28.54;33.35;;
69616;Laerm;56822;52.516;4.708;2023-05-10T00:23:48;34.29;30.66;38.88;;
69616;Laerm;56822;52.516;4.708;2023-05-10T00:23:58;33.40;29.81;37.13;;
69616;Laerm;56822;52.516;4.708;2023-05-10T00:24:08;31.71;29.95;40.92;;
69616;Laerm;56822;52.516;4.708;2023-05-10T00:24:19;33.15;29.50;38.20;;
69616;Laerm;56822;52.516;4.708;2023-05-10T00:24:29;33.91;30.76;38.29;;
69616;Laerm;56822;52.516;4.708;2023-05-10T00:24:39;37.68;33.29;40.36;;
69616;Laerm;56822;52.516;4.708;2023-05-10T00:24:50;37.19;34.79;40.16;;
69616;Laerm;56822;52.516;4.708;2023-05-10T00:25:00;33.65;31.16;37.45;;
69616;Laerm;56822;52.516;4.708;2023-05-10T00:25:10;34.67;30.84;38.46;;
69616;Laerm;56822;52.516;4.708;2023-05-10T00:25:21;31.51;29.56;40.22;;
69616;Laerm;56822;52.516;4.708;2023-05-10T00:25:34;33.44;30.48;36.47;;
69616;Laerm;56822;52.516;4.708;2023-05-10T00:25:44;33.34;31.68;35.52;;
69616;Laerm;56822;52.516;4.708;2023-05-10T00:25:55;32.16;30.10;35.14;;
69616;Laerm;56822;52.516;4.708;2023-05-10T00:26:05;37.07;33.79;41.10;;
69616;Laerm;56822;52.516;4.708;2023-05-10T00:26:16;36.68;33.43;39.55;;
69616;Laerm;56822;52.516;4.708;2023-05-10T00:26:26;35.66;32.21;39.70;;
69616;Laerm;56822;52.516;4.708;2023-05-10T00:26:37;35.38;31.98;44.68;;
69616;Laerm;56822;52.516;4.708;2023-05-10T00:26:47;32.09;29.89;34.54;;
69616;Laerm;56822;52.516;4.708;2023-05-10T00:26:57;30.85;29.22;34.48;;
69616;Laerm;56822;52.516;4.708;2023-05-10T00:27:07;32.29;29.06;35.24;;
69616;Laerm;56822;52.516;4.708;2023-05-10T00:27:18;37.92;33.12;40.79;;
69616;Laerm;56822;52.516;4.708;2023-05-10T00:27:28;37.06;31.62;41.65;;
69616;Laerm;56822;52.516;4.708;2023-05-10T00:27:38;31.06;28.51;36.65;;
69616;Laerm;56822;52.516;4.708;2023-05-10T00:27:48;31.24;28.63;42.50;;
69616;Laerm;56822;52.516;4.708;2023-05-10T00:27:59;36.40;31.37;40.27;;
69616;Laerm;56822;52.516;4.708;2023-05-10T00:28:11;34.19;30.33;39.53;;
69616;Laerm;56822;52.516;4.708;2023-05-10T00:28:21;30.15;28.74;37.03;;
69616;Laerm;56822;52.516;4.708;2023-05-10T00:28:32;32.55;29.73;36.36;;
69616;Laerm;56822;52.516;4.708;2023-05-10T00:28:42;35.57;31.60;43.14;;
69616;Laerm;56822;52.516;4.708;2023-05-10T00:28:52;32.24;30.51;41.24;;
69616;Laerm;56822;52.516;4.708;2023-05-10T00:29:03;34.58;31.60;41.53;;
69616;Laerm;56822;52.516;4.708;2023-05-10T00:29:13;35.67;32.75;38.95;;
69616;Laerm;56822;52.516;4.708;2023-05-10T00:29:23;33.39;31.54;36.14;;
69616;Laerm;56822;52.516;4.708;2023-05-10T00:29:34;33.20;30.71;38.29;;
69616;Laerm;56822;52.516;4.708;2023-05-10T00:29:44;33.78;30.86;37.21;;
69616;Laerm;56822;52.516;4.708;2023-05-10T00:29:54;36.21;33.20;39.57;;
69616;Laerm;56822;52.516;4.708;2023-05-10T00:30:05;31.40;28.76;36.83;;
69616;Laerm;56822;52.516;4.708;2023-05-10T00:30:16;31.49;28.66;35.96;;
69616;Laerm;56822;52.516;4.708;2023-05-10T00:30:26;38.63;31.64;42.49;;
69616;Laerm;56822;52.516;4.708;2023-05-10T00:30:37;35.25;32.23;37.77;;
69616;Laerm;56822;52.516;4.708;2023-05-10T00:30:47;33.29;30.09;37.17;;
69616;Laerm;56822;52.516;4.708;2023-05-10T00:30:57;31.98;29.45;35.85;;
69616;Laerm;56822;52.516;4.708;2023-05-10T00:31:07;30.97;28.71;34.65;;
69616;Laerm;56822;52.516;4.708;2023-05-10T00:31:18;29.04;27.72;32.61;;
69616;Laerm;56822;52.516;4.708;2023-05-10T00:31:28;29.32;27.79;41.43;;
69616;Laerm;56822;52.516;4.708;2023-05-10T00:31:38;28.88;27.80;34.86;;
69616;Laerm;56822;52.516;4.708;2023-05-10T00:31:49;29.17;27.96;35.97;;
69616;Laerm;56822;52.516;4.708;2023-05-10T00:31:59;30.46;28.21;45.20;;
69616;Laerm;56822;52.516;4.708;2023-05-10T00:32:09;29.17;27.96;33.01;;
69616;Laerm;56822;52.516;4.708;2023-05-10T00:32:19;32.58;28.60;50.77;;
69616;Laerm;56822;52.516;4.708;2023-05-10T00:32:30;33.67;28.95;37.77;;
69616;Laerm;56822;52.516;4.708;2023-05-10T00:32:40;32.65;30.17;36.82;;
69616;Laerm;56822;52.516;4.708;2023-05-10T00:32:51;31.13;28.53;34.85;;
69616;Laerm;56822;52.516;4.708;2023-05-10T00:33:01;29.71;28.36;34.54;;
69616;Laerm;56822;52.516;4.708;2023-05-10T00:33:12;33.03;28.62;39.51;;
69616;Laerm;56822;52.516;4.708;2023-05-10T00:33:23;33.61;30.78;38.98;;
69616;Laerm;56822;52.516;4.708;2023-05-10T00:33:33;37.08;32.76;41.81;;
69616;Laerm;56822;52.516;4.708;2023-05-10T00:33:43;33.03;29.32;39.33;;
69616;Laerm;56822;52.516;4.708;2023-05-10T00:33:54;32.20;29.50;35.40;;
69616;Laerm;56822;52.516;4.708;2023-05-10T00:34:04;34.37;30.29;38.71;;
69616;Laerm;56822;52.516;4.708;2023-05-10T00:34:15;31.45;30.27;33.63;;
69616;Laerm;56822;52.516;4.708;2023-05-10T00:34:25;30.38;28.35;32.77;;
69616;Laerm;56822;52.516;4.708;2023-05-10T00:34:35;31.71;29.69;37.53;;
69616;Laerm;56822;52.516;4.708;2023-05-10T00:34:46;31.21;29.47;35.01;;
69616;Laerm;56822;52.516;4.708;2023-05-10T00:34:56;30.79;29.26;32.52;;
69616;Laerm;56822;52.516;4.708;2023-05-10T00:35:07;32.25;29.95;38.83;;
69616;Laerm;56822;52.516;4.708;2023-05-10T00:35:17;32.66;30.65;37.54;;
69616;Laerm;56822;52.516;4.708;2023-05-10T00:35:27;32.65;30.54;38.36;;
69616;Laerm;56822;52.516;4.708;2023-05-10T00:35:38;33.91;30.77;44.39;;
69616;Laerm;56822;52.516;4.708;2023-05-10T00:35:48;33.52;30.89;37.15;;
69616;Laerm;56822;52.516;4.708;2023-05-10T00:35:58;31.99;30.22;41.14;;
69616;Laerm;56822;52.516;4.708;2023-05-10T00:36:09;30.57;29.37;32.39;;
69616;Laerm;56822;52.516;4.708;2023-05-10T00:36:19;31.46;29.32;35.67;;
69616;Laerm;56822;52.516;4.708;2023-05-10T00:36:29;31.27;29.10;36.62;;
69616;Laerm;56822;52.516;4.708;2023-05-10T00:36:41;31.56;29.11;34.85;;
69616;Laerm;56822;52.516;4.708;2023-05-10T00:36:51;29.79;27.91;32.85;;
69616;Laerm;56822;52.516;4.708;2023-05-10T00:37:01;31.21;28.89;36.75;;
69616;Laerm;56822;52.516;4.708;2023-05-10T00:37:12;31.62;29.33;34.61;;
69616;Laerm;56822;52.516;4.708;2023-05-10T00:37:22;32.04;30.18;42.12;;
69616;Laerm;56822;52.516;4.708;2023-05-10T00:37:33;32.27;30.31;35.90;;
69616;Laerm;56822;52.516;4.708;2023-05-10T00:37:43;36.33;31.77;41.64;;
69616;Laerm;56822;52.516;4.708;2023-05-10T00:37:53;33.28;31.07;36.78;;
69616;Laerm;56822;52.516;4.708;2023-05-10T00:38:04;34.30;32.20;38.94;;
69616;Laerm;56822;52.516;4.708;2023-05-10T00:38:14;31.63;29.63;37.29;;
69616;Laerm;56822;52.516;4.708;2023-05-10T00:38:24;32.98;30.31;44.81;;
69616;Laerm;56822;52.516;4.708;2023-05-10T00:38:34;32.96;30.18;48.54;;
69616;Laerm;56822;52.516;4.708;2023-05-10T00:38:45;31.72;29.75;34.92;;
69616;Laerm;56822;52.516;4.708;2023-05-10T00:38:55;33.25;31.07;38.61;;
69616;Laerm;56822;52.516;4.708;2023-05-10T00:39:06;32.34;30.27;34.21;;
69616;Laerm;56822;52.516;4.708;2023-05-10T00:39:16;34.31;30.10;39.10;;
69616;Laerm;56822;52.516;4.708;2023-05-10T00:39:26;35.24;32.49;42.33;;
69616;Laerm;56822;52.516;4.708;2023-05-10T00:39:38;32.82;30.41;36.68;;
69616;Laerm;56822;52.516;4.708;2023-05-10T00:39:48;34.31;32.24;39.84;;
69616;Laerm;56822;52.516;4.708;2023-05-10T00:39:59;35.35;31.63;37.79;;
69616;Laerm;56822;52.516;4.708;2023-05-10T00:40:09;34.19;32.53;35.84;;
69616;Laerm;56822;52.516;4.708;2023-05-10T00:40:20;34.64;32.37;36.35;;
69616;Laerm;56822;52.516;4.708;2023-05-10T00:40:30;33.51;30.71;36.80;;
69616;Laerm;56822;52.516;4.708;2023-05-10T00:40:41;34.04;30.09;37.31;;
69616;Laerm;56822;52.516;4.708;2023-05-10T00:40:51;36.12;33.85;38.50;;
69616;Laerm;56822;52.516;4.708;2023-05-10T00:41:01;33.52;31.19;36.12;;
69616;Laerm;56822;52.516;4.708;2023-05-10T00:41:12;32.24;30.25;38.24;;
69616;Laerm;56822;52.516;4.708;2023-05-10T00:41:22;33.76;31.32;36.41;;
69616;Laerm;56822;52.516;4.708;2023-05-10T00:41:32;31.30;29.61;33.64;;
69616;Laerm;56822;52.516;4.708;2023-05-10T00:41:43;30.76;28.72;41.70;;
69616;Laerm;56822;52.516;4.708;2023-05-10T00:41:53;29.38;28.12;34.67;;
69616;Laerm;56822;52.516;4.708;2023-05-10T00:42:04;29.30;27.93;32.70;;
69616;Laerm;56822;52.516;4.708;2023-05-10T00:42:15;30.98;28.11;35.21;;
69616;Laerm;56822;52.516;4.708;2023-05-10T00:42:25;31.33;28.36;38.63;;
69616;Laerm;56822;52.516;4.708;2023-05-10T00:42:35;30.78;28.77;43.70;;
69616;Laerm;56822;52.516;4.708;2023-05-10T00:42:46;32.42;28.70;36.04;;
69616;Laerm;56822;52.516;4.708;2023-05-10T00:42:56;29.93;28.52;33.59;;
69616;Laerm;56822;52.516;4.708;2023-05-10T00:43:07;30.12;28.37;34.14;;
69616;Laerm;56822;52.516;4.708;2023-05-10T00:43:17;32.38;29.69;42.54;;
69616;Laerm;56822;52.516;4.708;2023-05-10T00:43:27;30.34;28.91;34.15;;
69616;Laerm;56822;52.516;4.708;2023-05-10T00:43:38;30.78;28.81;34.80;;
69616;Laerm;56822;52.516;4.708;2023-05-10T00:43:48;37.16;33.52;40.75;;
69616;Laerm;56822;52.516;4.708;2023-05-10T00:43:59;32.96;30.51;36.34;;
69616;Laerm;56822;52.516;4.708;2023-05-10T00:44:09;32.90;30.12;40.09;;
69616;Laerm;56822;52.516;4.708;2023-05-10T00:44:19;31.34;29.60;33.74;;
69616;Laerm;56822;52.516;4.708;2023-05-10T00:44:30;31.42;29.19;33.66;;
69616;Laerm;56822;52.516;4.708;2023-05-10T00:44:41;31.05;29.23;32.76;;
69616;Laerm;56822;52.516;4.708;2023-05-10T00:44:51;31.81;29.82;36.52;;
69616;Laerm;56822;52.516;4.708;2023-05-10T00:45:01;30.74;28.92;38.15;;
69616;Laerm;56822;52.516;4.708;2023-05-10T00:45:12;30.03;28.51;32.99;;
69616;Laerm;56822;52.516;4.708;2023-05-10T00:45:22;30.41;28.86;36.67;;
69616;Laerm;56822;52.516;4.708;2023-05-10T00:45:33;30.48;28.98;32.79;;
69616;Laerm;56822;52.516;4.708;2023-05-10T00:45:44;30.73;28.56;39.23;;
69616;Laerm;56822;52.516;4.708;2023-05-10T00:45:55;30.55;28.99;33.63;;
69616;Laerm;56822;52.516;4.708;2023-05-10T00:46:05;56.74;29.05;74.82;;
69616;Laerm;56822;52.516;4.708;2023-05-10T00:46:16;56.59;29.32;73.51;;
69616;Laerm;56822;52.516;4.708;2023-05-10T00:46:27;33.60;31.13;37.42;;
69616;Laerm;56822;52.516;4.708;2023-05-10T00:46:38;35.78;32.83;38.78;;
69616;Laerm;56822;52.516;4.708;2023-05-10T00:46:48;37.02;34.08;43.37;;
69616;Laerm;56822;52.516;4.708;2023-05-10T00:46:59;34.32;31.79;38.42;;
69616;Laerm;56822;52.516;4.708;2023-05-10T00:47:09;35.28;31.86;43.41;;
69616;Laerm;56822;52.516;4.708;2023-05-10T00:47:20;32.77;29.96;36.56;;
69616;Laerm;56822;52.516;4.708;2023-05-10T00:47:30;30.68;29.10;36.54;;
69616;Laerm;56822;52.516;4.708;2023-05-10T00:47:41;32.28;29.64;37.24;;
69616;Laerm;56822;52.516;4.708;2023-05-10T00:47:51;33.12;30.83;36.36;;
69616;Laerm;56822;52.516;4.708;2023-05-10T00:48:05;34.52;31.14;37.11;;
69616;Laerm;56822;52.516;4.708;2023-05-10T00:48:15;32.57;29.98;36.44;;
69616;Laerm;56822;52.516;4.708;2023-05-10T00:48:25;46.65;30.98;71.16;;
69616;Laerm;56822;52.516;4.708;2023-05-10T00:48:36;32.59;30.55;35.27;;
69616;Laerm;56822;52.516;4.708;2023-05-10T00:48:46;33.62;31.16;38.53;;
69616;Laerm;56822;52.516;4.708;2023-05-10T00:48:57;32.82;30.12;36.99;;
69616;Laerm;56822;52.516;4.708;2023-05-10T00:49:07;32.78;30.52;36.22;;
69616;Laerm;56822;52.516;4.708;2023-05-10T00:49:18;33.29;30.99;35.29;;
69616;Laerm;56822;52.516;4.708;2023-05-10T00:49:29;30.94;29.31;32.88;;
69616;Laerm;56822;52.516;4.708;2023-05-10T00:49:39;32.20;29.84;36.82;;
69616;Laerm;56822;52.516;4.708;2023-05-10T00:49:50;31.46;28.14;40.58;;
69616;Laerm;56822;52.516;4.708;2023-05-10T00:50:01;29.94;27.56;38.14;;
69616;Laerm;56822;52.516;4.708;2023-05-10T00:50:12;33.38;28.46;47.18;;
69616;Laerm;56822;52.516;4.708;2023-05-10T00:50:23;30.72;28.40;34.35;;
69616;Laerm;56822;52.516;4.708;2023-05-10T00:50:33;32.93;29.77;41.10;;
69616;Laerm;56822;52.516;4.708;2023-05-10T00:50:44;30.19;28.48;32.35;;
69616;Laerm;56822;52.516;4.708;2023-05-10T00:50:55;30.65;28.67;37.58;;
69616;Laerm;56822;52.516;4.708;2023-05-10T00:51:05;29.27;27.88;33.69;;
69616;Laerm;56822;52.516;4.708;2023-05-10T00:51:16;29.39;27.96;35.95;;
69616;Laerm;56822;52.516;4.708;2023-05-10T00:51:26;30.77;28.47;36.13;;
69616;Laerm;56822;52.516;4.708;2023-05-10T00:51:37;32.71;30.76;42.99;;
69616;Laerm;56822;52.516;4.708;2023-05-10T00:51:47;31.13;29.29;33.30;;
69616;Laerm;56822;52.516;4.708;2023-05-10T00:51:58;30.90;29.04;33.39;;
69616;Laerm;56822;52.516;4.708;2023-05-10T00:52:09;33.48;29.72;41.77;;
69616;Laerm;56822;52.516;4.708;2023-05-10T00:52:19;35.00;30.89;38.64;;
69616;Laerm;56822;52.516;4.708;2023-05-10T00:52:29;31.30;29.25;34.72;;
69616;Laerm;56822;52.516;4.708;2023-05-10T00:52:40;30.40;28.61;33.99;;
69616;Laerm;56822;52.516;4.708;2023-05-10T00:52:51;29.69;28.18;36.25;;
69616;Laerm;56822;52.516;4.708;2023-05-10T00:53:02;30.38;28.63;33.64;;
69616;Laerm;56822;52.516;4.708;2023-05-10T00:53:12;30.18;28.81;33.26;;
69616;Laerm;56822;52.516;4.708;2023-05-10T00:53:23;30.32;28.54;36.48;;
69616;Laerm;56822;52.516;4.708;2023-05-10T00:53:33;31.86;29.78;39.44;;
69616;Laerm;56822;52.516;4.708;2023-05-10T00:53:47;33.95;31.32;42.40;;
69616;Laerm;56822;52.516;4.708;2023-05-10T00:53:58;30.45;28.68;34.49;;
69616;Laerm;56822;52.516;4.708;2023-05-10T00:54:09;34.54;29.60;38.79;;
69616;Laerm;56822;52.516;4.708;2023-05-10T00:54:21;35.76;32.27;39.44;;
69616;Laerm;56822;52.516;4.708;2023-05-10T00:54:31;32.23;29.04;44.27;;
69616;Laerm;56822;52.516;4.708;2023-05-10T00:54:41;31.22;28.94;34.95;;
69616;Laerm;56822;52.516;4.708;2023-05-10T00:54:52;31.60;29.38;42.19;;
69616;Laerm;56822;52.516;4.708;2023-05-10T00:55:03;31.52;29.56;39.39;;
69616;Laerm;56822;52.516;4.708;2023-05-10T00:55:14;31.05;28.99;38.33;;
69616;Laerm;56822;52.516;4.708;2023-05-10T00:55:24;32.81;29.71;42.27;;
69616;Laerm;56822;52.516;4.708;2023-05-10T00:55:34;29.78;28.75;33.38;;
69616;Laerm;56822;52.516;4.708;2023-05-10T00:55:45;36.28;29.54;48.51;;
69616;Laerm;56822;52.516;4.708;2023-05-10T00:55:55;33.26;29.48;41.97;;
69616;Laerm;56822;52.516;4.708;2023-05-10T00:56:05;32.84;29.53;42.24;;
69616;Laerm;56822;52.516;4.708;2023-05-10T00:56:16;29.92;28.37;33.64;;
69616;Laerm;56822;52.516;4.708;2023-05-10T00:56:26;29.99;28.53;35.69;;
69616;Laerm;56822;52.516;4.708;2023-05-10T00:56:39;34.26;29.17;45.95;;
69616;Laerm;56822;52.516;4.708;2023-05-10T00:56:50;34.18;29.73;48.11;;
69616;Laerm;56822;52.516;4.708;2023-05-10T00:57:01;34.23;30.11;53.29;;
69616;Laerm;56822;52.516;4.708;2023-05-10T00:57:13;34.35;29.80;37.82;;
69616;Laerm;56822;52.516;4.708;2023-05-10T00:57:23;33.55;29.81;37.39;;
69616;Laerm;56822;52.516;4.708;2023-05-10T00:57:34;33.97;30.60;38.11;;
69616;Laerm;56822;52.516;4.708;2023-05-10T00:57:44;34.02;30.90;36.68;;
69616;Laerm;56822;52.516;4.708;2023-05-10T00:57:54;31.23;28.84;38.19;;
69616;Laerm;56822;52.516;4.708;2023-05-10T00:58:05;30.12;28.98;33.92;;
69616;Laerm;56822;52.516;4.708;2023-05-10T00:58:16;30.13;28.36;36.49;;
69616;Laerm;56822;52.516;4.708;2023-05-10T00:58:27;29.88;28.35;34.26;;
69616;Laerm;56822;52.516;4.708;2023-05-10T00:58:39;29.63;28.13;36.75;;